KONA/ONA METAR and TAF weather

Enter ICAO airport designator
Station Type Date Time Source
KONA METAR 2021/05/14 04:55 UTC NOAA

KONA 140455Z AUTO 00000KT 10SM CLR 10/05 A3026 RMK AO2


Station Type Date Time Source
KONA Decoded METAR 2021/05/14 04:55 UTC NOAA

Winona, Winona Municipal Airport-Max Conrad Field, MN, United States (KONA) 44-05N 091-42W
May 14, 2021 - 12:55 AM EDT / 2021.05.14 0455 UTC
Wind: Calm:0
Visibility: 10 mile(s):0
Sky conditions: clear
Temperature: 50 F (10 C)
Dew Point: 41 F (5 C)
Relative Humidity: 71%
Pressure (altimeter): 30.26 in. Hg (1024 hPa)
ob: KONA 140455Z AUTO 00000KT 10SM CLR 10/05 A3026 RMK AO2
cycle: 5

Station Type Date Time Source
KONA TAF UTC NOAA

Error!

Example: see airport list